createdAt,value
2018-04-13T03:32:34.823Z,13.55
2018-04-13T03:35:08.654Z,11.93
2018-04-13T03:37:43.560Z,21.37
2018-04-13T03:40:17.230Z,9.57
2018-04-13T03:42:51.863Z,12.98
2018-04-13T03:45:25.702Z,12.20
2018-04-13T03:48:00.278Z,12.75
2018-04-13T03:50:34.050Z,12.30
2018-04-13T03:53:07.805Z,13.85
2018-04-13T03:55:42.546Z,12.68
2018-04-13T03:58:36.119Z,15.07
2018-04-13T04:01:10.015Z,14.05
2018-04-13T04:03:43.790Z,12.07
2018-04-13T04:06:17.913Z,18.12
2018-04-13T04:08:51.659Z,14.32
2018-04-13T04:11:26.258Z,14.45
2018-04-13T04:14:00.088Z,14.93
2018-04-13T04:16:33.881Z,12.05
2018-04-13T04:19:07.625Z,14.45
2018-04-13T04:21:54.239Z,12.75
2018-04-13T04:24:40.031Z,15.43
2018-04-13T04:27:13.865Z,13.50
2018-04-13T04:29:47.676Z,14.70
2018-04-13T04:32:21.355Z,17.20
2018-04-13T04:34:55.192Z,14.43
2018-04-13T04:37:28.956Z,16.02
2018-04-13T04:40:02.850Z,14.43
2018-04-13T04:42:37.359Z,14.18
2018-04-13T04:45:11.545Z,13.13
2018-04-13T04:47:45.299Z,13.40
2018-04-13T04:50:19.421Z,11.48
2018-04-13T04:52:53.195Z,13.80
2018-04-13T04:55:27.007Z,14.85
2018-04-13T04:58:00.793Z,13.68
2018-04-13T05:00:35.319Z,13.18
2018-04-13T05:03:09.084Z,12.80
2018-04-13T05:05:42.863Z,11.55
2018-04-13T05:08:16.727Z,14.35
2018-04-13T05:10:52.403Z,13.95
2018-04-13T05:13:26.167Z,16.25
2018-04-13T05:16:00.811Z,12.18
2018-04-13T05:18:36.127Z,10.32
2018-04-13T05:21:09.852Z,10.93
2018-04-13T05:23:44.490Z,12.73
2018-04-13T05:26:19.147Z,12.10
2018-04-13T05:28:52.898Z,13.80
2018-04-13T05:31:26.715Z,13.10
2018-04-13T05:34:01.224Z,12.70
2018-04-13T05:36:36.504Z,29.45
2018-04-13T05:39:10.277Z,12.32
2018-04-13T05:41:44.039Z,14.48
2018-04-13T05:44:17.958Z,11.82
2018-04-13T05:46:51.716Z,14.82
2018-04-13T05:49:25.591Z,14.87
2018-04-13T05:52:00.821Z,11.88
2018-04-13T05:54:34.639Z,14.18
2018-04-13T05:57:08.563Z,16.25
2018-04-13T05:59:42.319Z,14.57
2018-04-13T06:02:20.206Z,11.40
2018-04-13T06:04:54.020Z,12.85
2018-04-13T06:07:27.934Z,12.80
2018-04-13T06:10:02.778Z,12.63
2018-04-13T06:12:36.518Z,15.98
2018-04-13T06:15:11.264Z,17.37
2018-04-13T06:17:45.022Z,18.25
2018-04-13T06:20:18.902Z,15.60
2018-04-13T06:22:53.004Z,16.75
2018-04-13T06:25:27.568Z,12.20
2018-04-13T06:28:01.297Z,12.63
2018-04-13T06:30:35.103Z,15.02
2018-04-13T06:33:09.007Z,15.60
2018-04-13T06:35:44.231Z,17.40
2018-04-13T06:38:18.118Z,14.40
2018-04-13T06:40:51.914Z,13.90
2018-04-13T06:43:25.673Z,15.98
2018-04-13T06:45:59.499Z,16.42
2018-04-13T06:48:33.390Z,13.55
2018-04-13T06:51:07.288Z,20.00
2018-04-13T06:53:41.560Z,16.45
2018-04-13T06:56:16.223Z,16.25
2018-04-13T06:58:50.770Z,15.82
2018-04-13T07:01:25.261Z,15.23
2018-04-13T07:03:59.434Z,17.42
2018-04-13T07:06:33.199Z,16.77
2018-04-13T07:09:07.056Z,18.02
2018-04-13T07:11:41.413Z,21.08
2018-04-13T07:14:15.280Z,14.43
2018-04-13T07:16:49.074Z,19.75
2018-04-13T07:19:23.143Z,14.32
2018-04-13T07:21:56.917Z,14.02
2018-04-13T07:24:30.689Z,15.68
2018-04-13T07:27:04.585Z,17.15
2018-04-13T07:29:38.375Z,18.37
2018-04-13T07:32:12.238Z,17.80
2018-04-13T07:34:45.940Z,18.83
2018-04-13T07:37:19.700Z,23.50
2018-04-13T07:39:54.235Z,21.17
2018-04-13T07:42:28.254Z,18.37
2018-04-13T07:45:01.988Z,20.05
2018-04-13T07:47:36.359Z,18.80
2018-04-13T07:50:10.087Z,17.75
2018-04-13T07:52:43.767Z,20.15
2018-04-13T07:55:17.539Z,20.80
2018-04-13T07:57:51.271Z,19.65
2018-04-13T08:00:25.821Z,16.25
2018-04-13T08:02:59.901Z,16.80
2018-04-13T08:05:33.740Z,16.98
2018-04-13T08:08:08.542Z,17.80
2018-04-13T08:10:42.362Z,18.52
2018-04-13T08:13:16.497Z,16.48
2018-04-13T08:15:51.339Z,20.23
2018-04-13T08:18:25.089Z,19.75
2018-04-13T08:20:59.180Z,17.05
2018-04-13T08:23:33.052Z,17.48
2018-04-13T08:26:07.519Z,26.70
2018-04-13T08:28:41.341Z,20.60
2018-04-13T08:31:14.966Z,16.95
2018-04-13T08:33:48.884Z,15.48
2018-04-13T08:36:23.019Z,18.35
2018-04-13T08:38:56.794Z,16.80
2018-04-13T08:41:30.612Z,16.62
2018-04-13T08:44:05.300Z,26.70
2018-04-13T08:46:39.095Z,26.70
2018-04-13T08:49:13.780Z,27.70
2018-04-13T08:51:49.011Z,26.48
2018-04-13T08:54:22.877Z,18.70
2018-04-13T08:56:56.938Z,18.23
2018-04-13T08:59:30.613Z,18.83
2018-04-13T09:02:04.441Z,17.30
2018-04-13T09:04:38.231Z,20.98
2018-04-13T09:07:12.061Z,18.83
2018-04-13T09:09:45.818Z,21.98
2018-04-13T09:12:19.661Z,17.35
2018-04-13T09:14:55.674Z,15.45
2018-04-13T09:17:29.811Z,20.40
2018-04-13T09:20:05.059Z,17.87
2018-04-13T09:22:39.611Z,19.73
2018-04-13T09:25:13.411Z,20.10
2018-04-13T09:27:50.553Z,19.73
2018-04-13T09:30:24.367Z,21.95
2018-04-13T09:32:58.158Z,32.42
2018-04-13T09:35:32.926Z,13.07
2018-04-13T09:38:07.809Z,10.70
2018-04-13T09:40:42.015Z,9.43
2018-04-13T09:43:16.497Z,7.07
2018-04-13T09:45:51.146Z,5.68
2018-04-13T09:48:24.846Z,6.22
2018-04-13T09:50:58.630Z,7.32
2018-04-13T09:53:32.488Z,12.43
2018-04-13T09:56:06.318Z,3.45
2018-04-13T09:58:40.141Z,3.60
2018-04-13T10:01:15.910Z,7.87
2018-04-13T10:06:41.392Z,6.70
2018-04-13T10:09:15.222Z,6.85
2018-04-13T10:11:49.046Z,7.45
2018-04-13T10:14:22.990Z,7.45
2018-04-13T10:16:56.739Z,6.87
2018-04-13T10:19:30.580Z,7.35
2018-04-13T10:22:04.373Z,7.50
2018-04-13T10:24:43.170Z,8.63
2018-04-13T10:27:16.987Z,13.07
2018-04-13T10:29:50.811Z,5.97
2018-04-13T10:32:24.605Z,4.82
2018-04-13T10:34:58.461Z,9.48
2018-04-13T10:37:32.208Z,4.87
2018-04-13T10:40:06.042Z,7.90
2018-04-13T10:42:39.798Z,5.40
2018-04-13T10:45:13.627Z,6.82
2018-04-13T10:47:48.458Z,5.87
2018-04-13T10:50:22.252Z,8.32
2018-04-13T10:52:56.775Z,8.38
2018-04-13T10:55:30.711Z,9.23
2018-04-13T10:58:04.490Z,9.13
2018-04-13T11:00:38.351Z,10.63
2018-04-13T11:03:12.910Z,11.25
2018-04-13T11:05:46.755Z,10.32
2018-04-13T11:08:21.249Z,10.57
2018-04-13T11:10:55.114Z,7.30
2018-04-13T11:13:31.600Z,10.48
2018-04-13T11:16:05.374Z,9.50
2018-04-13T11:18:39.167Z,7.72
2018-04-13T11:21:12.963Z,8.50
2018-04-13T11:23:46.739Z,9.10
2018-04-13T11:26:20.559Z,10.85
2018-04-13T11:28:54.458Z,9.63
2018-04-13T11:31:28.135Z,8.00
2018-04-13T11:34:01.995Z,8.02
2018-04-13T11:36:36.879Z,7.70
2018-04-13T11:39:11.330Z,16.23
2018-04-13T11:41:47.069Z,6.72
2018-04-13T11:44:20.860Z,7.90
2018-04-13T11:46:54.959Z,8.00
2018-04-13T11:49:28.771Z,5.35
2018-04-13T11:52:02.602Z,5.37
2018-04-13T11:54:36.440Z,4.03
2018-04-13T11:57:11.134Z,3.78
2018-04-13T11:59:46.892Z,3.58
2018-04-13T12:02:20.800Z,5.65
2018-04-13T12:04:56.125Z,3.60
2018-04-13T12:07:30.066Z,8.85
2018-04-13T12:10:04.657Z,3.75
2018-04-13T12:12:39.225Z,4.50
2018-04-13T12:15:13.803Z,4.57
2018-04-13T12:17:47.659Z,4.57
2018-04-13T12:20:21.500Z,5.55
2018-04-13T12:22:55.366Z,4.00
2018-04-13T12:25:29.075Z,3.35
2018-04-13T12:28:03.581Z,3.72
2018-04-13T12:30:37.194Z,3.20
2018-04-13T12:33:11.303Z,5.22
2018-04-13T12:35:47.000Z,3.67
2018-04-13T12:38:21.684Z,3.53
2018-04-13T12:54:03.867Z,6.07
2018-04-13T12:56:37.659Z,7.43
2018-04-13T12:59:11.543Z,7.72
2018-04-13T13:01:46.081Z,6.05
2018-04-13T13:04:19.850Z,4.65
2018-04-13T13:06:53.610Z,4.47
2018-04-13T13:09:27.467Z,6.20
2018-04-13T13:12:02.119Z,5.55
2018-04-13T13:14:35.899Z,7.05
2018-04-13T13:17:09.681Z,6.70
2018-04-13T13:19:44.407Z,7.75
2018-04-13T13:22:18.195Z,4.95
2018-04-13T13:24:51.991Z,6.20
2018-04-13T13:27:25.815Z,6.18
2018-04-13T13:29:59.755Z,7.95
2018-04-13T13:32:34.308Z,5.75
2018-04-13T13:35:08.158Z,6.05
2018-04-13T13:37:42.757Z,7.45
2018-04-13T13:40:16.606Z,6.12
2018-04-13T13:42:50.482Z,6.30
2018-04-13T13:45:24.243Z,6.50
2018-04-13T13:47:58.016Z,6.85
2018-04-13T13:50:32.870Z,6.32
2018-04-13T13:53:08.635Z,6.15
2018-04-13T13:55:42.465Z,6.20
2018-04-13T13:58:18.102Z,7.00
2018-04-13T14:00:51.857Z,6.10
2018-04-13T14:03:26.041Z,6.97
2018-04-13T14:06:00.020Z,4.68
2018-04-13T14:08:34.658Z,5.47
2018-04-13T14:11:10.326Z,7.72
2018-04-13T14:13:44.154Z,6.28
2018-04-13T14:16:18.037Z,6.07
2018-04-13T14:18:52.746Z,4.93
2018-04-13T14:21:26.505Z,4.25
2018-04-13T14:24:00.266Z,5.47
2018-04-13T14:26:34.146Z,5.07
2018-04-13T14:29:10.035Z,4.25
2018-04-13T14:31:43.847Z,3.22
2018-04-13T14:34:18.485Z,3.67
2018-04-13T14:36:52.258Z,3.20
2018-04-13T14:39:26.926Z,4.25
2018-04-13T14:42:01.035Z,2.97
2018-04-13T14:44:35.975Z,3.50
2018-04-13T14:47:09.651Z,3.42
2018-04-13T14:49:43.372Z,3.80
2018-04-13T14:52:17.983Z,3.62
2018-04-13T14:54:51.785Z,2.50
2018-04-13T14:57:25.524Z,5.18
2018-04-13T14:59:59.339Z,3.35
2018-04-13T15:02:33.142Z,4.97
2018-04-13T15:05:06.947Z,6.30
2018-04-13T15:07:40.801Z,3.53
2018-04-13T15:10:14.592Z,5.37
2018-04-13T15:12:48.397Z,3.67
2018-04-13T15:15:23.045Z,4.65
2018-04-13T15:17:56.931Z,4.82
2018-04-13T15:20:30.730Z,4.40
2018-04-13T15:23:04.545Z,7.80
2018-04-13T15:25:39.226Z,8.48
2018-04-13T15:28:13.157Z,5.68
2018-04-13T15:30:49.513Z,7.70
2018-04-13T15:33:23.431Z,6.80
2018-04-13T15:35:57.626Z,5.47
2018-04-13T15:38:31.507Z,4.62
2018-04-13T15:41:05.642Z,5.72
2018-04-13T15:43:40.232Z,4.30
2018-04-13T15:46:14.115Z,5.50
2018-04-13T15:48:48.782Z,5.50
2018-04-13T15:51:22.626Z,4.20
2018-04-13T15:53:56.527Z,5.75
2018-04-13T15:56:30.396Z,14.50
2018-04-13T15:59:04.927Z,5.80
2018-04-13T16:01:38.800Z,4.87
2018-04-13T16:04:12.552Z,10.88
2018-04-13T16:06:46.417Z,5.50
2018-04-13T16:09:20.183Z,6.05
2018-04-13T16:11:54.152Z,4.10
2018-04-13T16:14:27.979Z,5.40
2018-04-13T16:17:01.855Z,4.28
2018-04-13T16:19:35.885Z,4.80
2018-04-13T16:22:09.707Z,5.60
2018-04-13T16:24:44.334Z,6.12
2018-04-13T16:27:18.179Z,5.20
2018-04-13T16:29:51.963Z,7.20
2018-04-13T16:32:26.585Z,6.87
2018-04-13T16:35:01.172Z,4.43
2018-04-13T16:37:35.214Z,4.80
2018-04-13T16:40:09.823Z,4.00
2018-04-13T16:42:43.628Z,4.25
2018-04-13T16:45:17.517Z,6.95
2018-04-13T16:47:51.402Z,6.30
2018-04-13T16:50:25.939Z,3.90
2018-04-13T16:53:00.482Z,3.47
2018-04-13T16:55:35.141Z,3.75
2018-04-13T16:58:09.105Z,10.82
2018-04-13T17:00:43.558Z,4.15
2018-04-13T17:03:17.243Z,2.92
2018-04-13T17:05:51.111Z,3.58
2018-04-13T17:08:26.393Z,3.70
2018-04-13T17:11:00.251Z,5.78
2018-04-13T17:13:34.042Z,9.50
2018-04-13T17:16:08.665Z,9.50
2018-04-13T17:18:43.223Z,6.75
2018-04-13T17:21:18.253Z,4.57
2018-04-13T17:23:51.907Z,5.90
2018-04-13T17:26:25.673Z,4.78
2018-04-13T17:28:59.499Z,6.68
2018-04-13T17:31:33.335Z,6.47
2018-04-13T17:34:07.958Z,5.95
2018-04-13T17:36:42.579Z,7.82
2018-04-13T17:39:17.159Z,5.82
2018-04-13T17:41:51.939Z,6.35
2018-04-13T17:44:25.740Z,5.45
2018-04-13T17:46:59.566Z,9.35
2018-04-13T17:49:33.356Z,8.38
2018-04-13T17:52:08.287Z,5.80
2018-04-13T17:54:41.982Z,5.40
2018-04-13T17:57:15.678Z,7.60
2018-04-13T17:59:49.504Z,5.65
2018-04-13T18:02:23.610Z,11.60
2018-04-13T18:04:57.382Z,8.35
2018-04-13T18:07:31.163Z,8.50
2018-04-13T18:10:04.918Z,13.30
2018-04-13T18:12:38.850Z,5.60
2018-04-13T18:15:12.555Z,14.43
2018-04-13T18:17:46.294Z,9.15
2018-04-13T18:20:20.090Z,12.63
2018-04-13T18:22:53.860Z,11.43
2018-04-13T18:25:27.848Z,4.37
2018-04-13T18:28:01.782Z,3.33
2018-04-13T18:30:35.690Z,4.40
2018-04-13T18:33:10.296Z,4.85
2018-04-13T18:35:44.043Z,4.60
2018-04-13T18:38:18.621Z,4.47
2018-04-13T18:40:52.258Z,4.45
2018-04-13T18:43:26.863Z,7.53
2018-04-13T18:46:00.623Z,4.40
2018-04-13T18:48:35.290Z,5.35
2018-04-13T18:51:09.303Z,5.53
2018-04-13T18:53:43.108Z,4.20
2018-04-13T18:56:16.979Z,5.40
2018-04-13T18:58:51.536Z,4.45
2018-04-13T19:01:25.318Z,4.65
2018-04-13T19:03:59.055Z,4.22
2018-04-13T19:06:33.668Z,3.83
2018-04-13T19:09:07.348Z,4.28
2018-04-13T19:11:41.810Z,3.75
2018-04-13T19:14:15.616Z,3.90
2018-04-13T19:16:49.523Z,3.70
2018-04-13T19:19:23.603Z,4.57
2018-04-13T19:21:58.124Z,3.50
2018-04-13T19:24:31.843Z,3.67
2018-04-13T19:27:05.578Z,3.85
2018-04-13T19:29:39.675Z,4.90
2018-04-13T19:32:14.192Z,3.53
2018-04-13T19:34:47.899Z,4.03
2018-04-13T19:37:22.397Z,3.78
2018-04-13T19:39:56.900Z,4.00
2018-04-13T19:42:30.627Z,5.50
2018-04-13T19:45:05.188Z,3.90
2018-04-13T19:47:38.907Z,3.65
2018-04-13T19:50:12.668Z,3.70
2018-04-13T19:52:46.511Z,4.07
2018-04-13T19:55:20.299Z,4.37
2018-04-13T19:57:56.895Z,3.97
2018-04-13T20:00:30.534Z,4.07
2018-04-13T20:03:04.418Z,3.55
2018-04-13T20:05:38.215Z,3.03
2018-04-13T20:08:13.701Z,3.40
2018-04-13T20:10:47.602Z,3.65
2018-04-13T20:13:21.380Z,2.80
2018-04-13T20:15:55.159Z,3.30
2018-04-13T20:18:28.966Z,3.08
2018-04-13T20:21:03.078Z,4.53
2018-04-13T20:23:36.855Z,4.53
2018-04-13T20:26:10.980Z,5.75
2018-04-13T20:28:44.714Z,3.22
2018-04-13T20:31:19.326Z,2.80
2018-04-13T20:33:53.019Z,3.37
2018-04-13T20:36:26.832Z,4.30
2018-04-13T20:39:00.562Z,9.82
2018-04-13T20:41:34.322Z,7.90
2018-04-13T20:44:08.964Z,5.30
2018-04-13T20:46:42.639Z,8.38
2018-04-13T20:49:16.517Z,6.43
2018-04-13T20:51:50.300Z,5.93
2018-04-13T20:54:24.494Z,9.98
2018-04-13T20:56:58.298Z,6.50
2018-04-13T20:59:32.014Z,6.80
